Main page
METAR-TAF:

METAR-TAF

Airports :

Nantes Atlantique Airport

Nantes, France

latitude: 47-10N, longitude: 001-36W, elevation: 27 m

Current weather observation

The report was made 31 minutes ago, at 22:00 UTC
Wind 8 kt from the Northeast, varying between North and East/Northeast
Temperature 12°C
Humidity 88%
Pressure 1016 hPa
Visibility 10 km or more
Overcast at a height of 4500 ft
light rain

METAR: LFRS 222200Z AUTO 04008KT 360V060 9999 -RA OVC045 12/10 Q1016 TEMPO 3000 DZRA BKN008

Time: 00:31 (22:31 UTC)

Forecast

The report was made 5 hours and 31 minutes ago, at 17:00 UTC
Forecast valid from 22 at 18 UTC to 23 at 24 UTC
Wind 8 kt from the Northeast
Visibility 10 km or more
no clouds below 1500 m and no cumulonimbus
Becoming
from 22 at 20 UTC to 22 at 22 UTC
light rain
Temporary
from 22 at 22 UTC to 23 at 18 UTC
Visibility: 3000 m
Broken clouds at a height of 800 ft
drizzle, rain

TAF: LFRS 221700Z 2218/2324 04008KT CAVOK BECMG 2220/2222 -RA TEMPO 2222/2318 3000 DZRA BKN008

Weather observations and forecasts of more than 4000 airports (METAR and TAF reports).

The available stations are represented by yellow and red dots on the map.

Hover mouse over dot to see the name of the station.

Then click to see weather observations and forecasts.

To change the map : click on the green buttons with a black cross to zoom in, on the green button with a dash to zoom out, or on the green arrows for adjacent maps.


METAR-TAF: